Pagrindinis puslapis
METAR-TAF:

METAR-TAF

Oro uostai :

Šeleftėjas, Švedija

platuma: 64-38N, ilguma: 021-05E, Aukštis: 49 m

Dabartinis oras

Ataskaita buvo paskelbta 30 minutes, ne 10:50 UTC
Vėjas 6 kt iš Pietų/Pietvakarių, svyruoja nuo Pietų ir Vakarų/Pietvakarių
Temperatūra 8°C
Drėgmė 81%
Slėgis 998 hPa
Matomumas 10 km arba daugiau
Su prošvaistėmis ne aukštis 2000 ft

METAR: ESNS 291050Z 21006KT 180V240 9999 BKN020 08/05 Q0998

Laikas: 12:20 (11:20 UTC)

Prognozė

Ataskaita buvo paskelbta 2 valandos ir 50 minutes, ne 08:30 UTC
Prognozė galioja nuo 29 metu 09 UTC su 29 metu 12 UTC
Vėjas 8 kt iš Pietų/Pietvakarių
Matomumas 10 km arba daugiau
Išsisklaidę debesys ne aukštis 1500 ft
Su prošvaistėmis ne aukštis 2000 ft
Tikimybė 40%
nuo 29 metu 09 UTC su 29 metu 12 UTC
Su prošvaistėmis ne aukštis 1200 ft

TAF: ESNS 290830Z 2909/2912 20008KT 9999 SCT015 BKN020 PROB40 2909/2912 BKN012

Orai ataskaitas ir orų prognozės (METAR, TAF).

turimą stotys yra geltonos ir raudonos taškus žemėlapyje.

Perkelti pele per norėdami pamatyti stoties vardą.

Tada spustelėkite, norėdami matyti oro stebėjimo ir prognozės.

Norėdami pakeisti žemėlapį: spustelėkite ant žalios mygtukų su juodo kryžiaus žemyn,; žalią mygtuką su brūkšneliu, jei norite nutolinti; arba žalių rodyklių gretimoms žemėlapius.


METAR-TAF: